Boca Raton, FL (33427)

1:05 AM EDT on August 26, 2016 (GMT -0400)
Boca Surf Cam . Com | | Change Station

Elev 26 ft 26.35 °N, 80.07 °W | Updated 7 minutes ago

Clear
Clear
84.7 °F
Feels Like 94 °F
N
14.0
Wind Variable Wind from East

Today
High -- | Low -- °F
--% Chance of Precip.
Yesterday
High -- | Low -- °F
Precip. -- in
Pressure 29.94 in
Visibility 10.0 miles
Clouds Clear
Heat Index 94 °F
Dew Point 76 °F
Humidity 75%
Rainfall 0.00 in
Snow Depth Not available.
6:57 AM 7:45 PM
Last Quarter, 38% visible
METAR KPMP 260453Z AUTO 07008KT 10SM CLR 29/26 A2994 RMK AO2 LTG DSNT N AND NE SLP138 T02890256 403330272
Pressure 29.94 in
Visibility 10.0 miles
Clouds Clear
Heat Index 94 °F
Dew Point 76 °F
Humidity 75%
Rainfall 0.00 in
Snow Depth Not available.
6:57 AM 7:45 PM
Last Quarter, 38% visible
METAR KPMP 260453Z AUTO 07008KT 10SM CLR 29/26 A2994 RMK AO2 LTG DSNT N AND NE SLP138 T02890256 403330272
A tropical disturbance pushing toward the Bahamas, is expected to develop into a tropical depression or storm, and will likely target Florida and the Gulf Coast this weekend into next week.

Right now, the disturbance remains a broad area of low pressure pushing through the Dominican Republic and Haiti, headed toward the southeast Bahamas. Rainfall totals over 3 inches (with locally higher amounts) are expected in HispaƱiola, particularly over elevated terrain.

10-Day Weather Forecast

Almanac

Astronomy

Aug. 26, 2016 Rise Set
Actual Time
Civil Twilight
Nautical Twilight
Astronomical Twilight
Moon
Length of Visible Light
Length of Day
Tomorrow will be .
, % of the Moon is Illuminated

Today's Extremes

State Highs State Lows

Community

WunderPhotos

Upload Photos

1,935,057 photos uploaded!

WunderBlog® & News

Nearby

Air Quality

  Air Quality AQ Index Pollutant
Not available.

Snow Depth

Station Depth Elevation

Earthquake Activity

City Distance Mag. Time & Date
Minimum magnitude displayed is 2.5.

Coastal Water Temperatures

Place Temperature

Stations

Nearby Weather Stations

Station Location Temp. Windchill Dew Point Humidity Wind Precip. Elev Updated Type
                   

Watches & Warnings

There are currently no watches in effect.